Time;durP1;ratioP1;P1;durP2;ratioP2;P2;SDS_P1;SDS_P2;PMS_P1;PMS_P2;Temp;Humidity;BMP_temperature;BMP_pressure;BME280_temperature;BME280_humidity;BME280_pressure;Samples;Min_cycle;Max_cycle;Signal;HPM_P1;HPM_P2
2022/05/16 04:19:45;;;;;;;10.27;3.60;;;;;;;9.23;77.82;100949.20;713608;1174;23649;-76
2022/05/16 04:34:48;;;;;;;9.08;4.73;;;;;;;9.70;76.81;100951.94;713688;1174;114841;-75
2022/05/16 04:49:50;;;;;;;8.70;3.95;;;;;;;10.26;78.06;100958.28;713194;1174;114890;-73
2022/05/16 05:04:52;;;;;;;7.55;3.98;;;;;;;10.85;77.88;100961.66;713271;1174;115157;-75
2022/05/16 05:19:55;;;;;;;9.30;6.40;;;;;;;11.61;78.07;100949.45;713036;1174;115173;-73
2022/05/16 05:34:57;;;;;;;7.13;4.20;;;;;;;12.30;78.11;100945.51;713059;1174;114919;-73
2022/05/16 05:50:01;;;;;;;18.65;6.80;;;;;;;13.12;77.13;100956.07;713151;1174;114842;-74
2022/05/16 06:05:04;;;;;;;11.80;4.40;;;;;;;13.74;76.60;100959.34;713742;1174;115546;-76
2022/05/16 06:20:08;;;;;;;10.70;4.67;;;;;;;14.37;75.70;100947.43;713049;1174;114825;-74
2022/05/16 06:35:11;;;;;;;8.15;3.68;;;;;;;15.23;74.45;100958.70;713432;1174;115125;-79
2022/05/16 06:50:13;;;;;;;10.13;3.05;;;;;;;15.81;72.74;100957.47;713129;1174;113956;-77
2022/05/16 07:05:16;;;;;;;5.37;2.23;;;;;;;16.60;69.71;100950.34;713464;1176;115390;-83
2022/05/16 07:20:20;;;;;;;7.43;1.50;;;;;;;17.65;65.88;100950.96;713721;1174;115526;-77
2022/05/16 07:35:30;;;;;;;4.30;1.80;;;;;;;18.50;62.33;100950.51;713591;1175;115383;-79
2022/05/16 07:50:36;;;;;;;5.03;1.78;;;;;;;19.64;59.13;100950.08;713223;1177;115887;-76
2022/05/16 08:05:39;;;;;;;3.57;2.70;;;;;;;20.39;56.40;100940.39;713395;1174;115434;-77
2022/05/16 08:20:44;;;;;;;3.30;2.23;;;;;;;21.21;54.31;100932.37;713725;1176;115187;-77
2022/05/16 08:39:52;;;;;;;2.98;1.40;;;;;;;21.56;51.57;100943.17;717735;1167;115271;-76
2022/05/16 08:53:27;;;;;;;2.68;1.50;;;;;;;22.15;44.86;100951.86;712732;1167;402852;-75
2022/05/16 09:08:53;;;;;;;3.57;0.97;;;;;;;22.57;45.18;100952.73;713270;1174;114636;-77
2022/05/16 09:24:14;;;;;;;2.23;0.75;;;;;;;23.37;45.39;100953.02;713829;1174;115260;-75
2022/05/16 09:39:24;;;;;;;2.40;1.30;;;;;;;23.76;43.41;100948.69;713494;1174;113878;-76
2022/05/16 09:54:32;;;;;;;1.38;0.85;;;;;;;23.80;43.05;100948.30;713119;1177;115479;-74
2022/05/16 10:09:40;;;;;;;2.45;0.85;;;;;;;24.92;43.47;100946.36;713528;1174;114849;-74
2022/05/16 10:24:49;;;;;;;1.43;0.78;;;;;;;26.02;42.49;100924.69;713311;1174;114547;-76
2022/05/16 10:40:12;;;;;;;28.33;2.97;;;;;;;25.46;42.61;100918.37;713394;1174;114835;-74
2022/05/16 10:55:15;;;;;;;2.35;0.80;;;;;;;26.52;41.94;100912.99;713222;1176;115488;-74
2022/05/16 11:10:25;;;;;;;4.27;0.93;;;;;;;26.79;42.17;100889.29;713749;1177;115056;-77
2022/05/16 11:25:47;;;;;;;2.23;0.85;;;;;;;25.11;41.99;100881.24;713750;1174;115381;-76
2022/05/16 11:41:25;;;;;;;1.77;0.93;;;;;;;26.38;41.60;100867.45;713218;1176;113872;-77
2022/05/16 12:12:27;;;;;;;1.35;0.60;;;;;;;27.34;40.34;100853.21;713439;1174;114954;-77
2022/05/16 12:27:44;;;;;;;1.70;0.73;;;;;;;25.51;40.80;100843.34;713609;1177;114765;-77
2022/05/16 12:42:56;;;;;;;0.90;0.50;;;;;;;24.98;40.93;100845.39;713651;1174;115221;-73
2022/05/16 12:58:24;;;;;;;1.20;1.00;;;;;;;25.93;42.09;100834.66;713119;1175;114774;-74
2022/05/16 13:13:59;;;;;;;7.00;1.88;;;;;;;27.19;40.05;100823.25;713044;1174;115477;-71
2022/05/16 14:35:06;;;;;;;0.90;0.85;;;;;;;27.59;39.48;100759.79;714449;1174;23150;-70
2022/05/16 14:50:13;;;;;;;1.00;0.90;;;;;;;26.76;40.02;100747.12;714008;1174;114220;-73
2022/05/16 15:05:16;;;;;;;3.38;1.00;;;;;;;26.14;41.08;100739.33;713379;1174;114104;-70
2022/05/16 15:20:18;;;;;;;1.93;0.83;;;;;;;26.56;41.21;100732.08;713202;1174;115213;-70
2022/05/16 15:35:21;;;;;;;1.28;0.88;;;;;;;25.80;41.10;100712.88;713076;1174;115435;-70
2022/05/16 15:50:30;;;;;;;1.35;1.00;;;;;;;25.88;41.53;100711.72;713194;1173;114373;-70
2022/05/16 16:20:55;;;;;;;3.03;2.10;;;;;;;24.58;43.90;100687.41;713412;1174;115349;-70
2022/05/16 16:35:58;;;;;;;5.47;4.87;;;;;;;23.50;45.28;100691.69;713225;1174;115279;-71
2022/05/16 16:57:27;;;;;;;7.27;2.93;;;;;;;23.68;45.12;100701.72;713348;1174;115319;-72
2022/05/16 17:06:31;;;;;;;5.75;4.13;;;;;;;22.87;46.99;100703.70;713307;1174;115549;-69
2022/05/16 17:21:36;;;;;;;23.40;11.53;;;;;;;22.21;47.76;100713.27;713359;1174;115266;-70
2022/05/16 17:36:40;;;;;;;13.10;5.27;;;;;;;21.78;48.36;100712.50;713186;1174;115694;-72
2022/05/16 17:51:50;;;;;;;15.33;6.25;;;;;;;21.32;47.62;100715.73;713721;1174;114579;-73
2022/05/16 18:06:53;;;;;;;21.55;8.33;;;;;;;20.94;46.85;100732.08;713141;1174;115126;-73
2022/05/16 18:21:56;;;;;;;15.58;7.20;;;;;;;20.26;45.90;100746.58;713641;1174;114202;-71
2022/05/16 18:36:59;;;;;;;35.87;14.43;;;;;;;19.77;45.36;100760.50;713205;1173;114775;-72
2022/05/16 18:52:04;;;;;;;15.38;5.78;;;;;;;19.15;45.69;100770.44;713434;1174;115547;-74
2022/05/16 19:07:06;;;;;;;12.53;6.20;;;;;;;18.79;46.41;100786.95;713372;1174;115831;-72
2022/05/16 19:22:10;;;;;;;10.88;4.73;;;;;;;18.38;46.94;100788.03;713422;1174;115359;-74
2022/05/16 19:37:14;;;;;;;27.45;11.88;;;;;;;17.86;47.82;100801.85;713228;1174;115794;-73
2022/05/16 19:52:17;;;;;;;15.70;6.88;;;;;;;17.44;49.06;100815.17;713523;1174;114198;-71
2022/05/16 20:07:20;;;;;;;8.50;4.47;;;;;;;17.01;49.75;100830.45;713423;1174;114559;-72
2022/05/16 20:37:50;;;;;;;31.70;14.10;;;;;;;16.73;50.99;100833.33;713484;1174;114748;-72
2022/05/16 20:52:56;;;;;;;12.45;4.18;;;;;;;16.20;51.96;100826.55;713218;1174;115652;-72
2022/05/16 21:07:58;;;;;;;9.78;3.18;;;;;;;15.76;52.64;100822.98;713298;1174;115545;-72
2022/05/16 21:23:01;;;;;;;9.43;4.23;;;;;;;15.44;53.95;100826.23;713356;1174;115323;-71
2022/05/16 21:38:03;;;;;;;5.98;2.98;;;;;;;15.16;54.50;100830.80;713547;1174;115031;-72
2022/05/16 21:53:07;;;;;;;7.53;3.28;;;;;;;14.74;55.17;100843.63;713026;1174;114977;-71
2022/05/16 22:08:12;;;;;;;6.88;3.93;;;;;;;14.46;56.65;100834.85;713130;1174;115706;-71
2022/05/16 22:23:15;;;;;;;8.00;3.50;;;;;;;14.29;56.72;100837.31;713337;1174;115582;-71
2022/05/16 22:38:17;;;;;;;5.73;3.07;;;;;;;13.96;58.12;100841.31;713428;1174;115170;-71
2022/05/16 22:53:21;;;;;;;6.75;3.15;;;;;;;13.76;58.91;100857.17;714150;1174;115562;-71
2022/05/16 23:08:24;;;;;;;7.40;3.40;;;;;;;13.41;59.69;100869.17;713839;1174;114383;-71
2022/05/16 23:23:27;;;;;;;7.73;2.90;;;;;;;13.12;59.57;100869.97;713595;1174;115497;-71
2022/05/16 23:38:29;;;;;;;12.20;4.60;;;;;;;12.78;59.74;100872.95;713673;1174;115167;-71
2022/05/16 23:53:33;;;;;;;6.15;3.20;;;;;;;12.51;60.38;100867.48;713098;1173;115512;-71
